Time,TemperatureF,DewpointF,PressureIn,WindDirection,WindDirectionDegrees,WindSpeedMPH,WindSpeedGustMPH,Humidity,HourlyPrecipIn,Conditions,Clouds,dailyrainin,SoftwareType,DateUTC
2013-02-11 00:00:00,47.4,46.3,30.33,NNE,24,1.2,2.3,96,0.00,CLR,,0.00,WeatherDisplay:10.37,2013-02-11 05:00:00,
2013-02-11 00:04:00,47.5,46.5,30.34,NNE,24,2.0,3.0,96,0.00,CLR,,0.00,WeatherDisplay:10.37,2013-02-11 05:04:00,
2013-02-11 00:09:00,47.8,46.7,30.34,NNE,24,0.0,3.0,96,0.00,CLR,,0.00,WeatherDisplay:10.37,2013-02-11 05:09:00,
2013-02-11 00:14:00,47.9,46.8,30.33,NNE,24,0.0,0.0,96,0.00,CLR,,0.00,WeatherDisplay:10.37,2013-02-11 05:14:00,
2013-02-11 00:19:00,48.1,47.0,30.33,NNE,24,0.0,1.0,96,0.00,CLR,,0.00,WeatherDisplay:10.37,2013-02-11 05:19:00,
2013-02-11 00:24:00,48.1,47.0,30.33,NNE,24,0.0,0.0,96,0.00,CLR,,0.00,WeatherDisplay:10.37,2013-02-11 05:24:00,
2013-02-11 00:29:00,48.2,47.1,30.33,NNE,24,0.0,0.0,96,0.00,CLR,,0.00,WeatherDisplay:10.37,2013-02-11 05:29:00,
2013-02-11 00:35:00,48.3,47.2,30.33,NNE,24,0.0,0.0,96,0.00,CLR,,0.00,WeatherDisplay:10.37,2013-02-11 05:35:00,
2013-02-11 00:40:00,48.3,47.2,30.33,NNE,24,0.0,0.0,96,0.00,CLR,,0.00,WeatherDisplay:10.37,2013-02-11 05:40:00,
2013-02-11 00:45:00,48.5,47.4,30.32,NNE,24,0.0,0.0,96,0.00,CLR,,0.00,WeatherDisplay:10.37,2013-02-11 05:45:00,
2013-02-11 00:50:00,48.6,47.5,30.32,NNE,24,0.0,0.0,96,0.00,CLR,,0.00,WeatherDisplay:10.37,2013-02-11 05:50:00,
2013-02-11 00:56:00,48.6,47.5,30.32,NNE,24,0.3,1.1,96,0.00,CLR,,0.00,WeatherDisplay:10.37,2013-02-11 05:56:00,
2013-02-11 01:01:00,48.7,47.6,30.32,NNE,24,0.0,0.0,96,0.00,CLR,,0.00,WeatherDisplay:10.37,2013-02-11 06:01:00,
2013-02-11 01:06:00,48.7,47.6,30.31,NNE,28,2.5,3.5,96,0.00,CLR,,0.00,WeatherDisplay:10.37,2013-02-11 06:06:00,
2013-02-11 01:11:00,48.7,47.3,30.30,ENE,62,1.0,2.3,95,0.00,CLR,,0.00,WeatherDisplay:10.37,2013-02-11 06:11:00,
2013-02-11 01:16:00,48.7,47.3,30.30,ENE,78,1.4,2.3,95,0.00,CLR,,0.00,WeatherDisplay:10.37,2013-02-11 06:16:00,
2013-02-11 01:22:00,48.8,47.4,30.31,ENE,78,0.0,0.0,95,0.00,CLR,,0.00,WeatherDisplay:10.37,2013-02-11 06:22:00,
2013-02-11 01:27:00,48.8,47.4,30.30,ENE,78,0.0,0.0,95,0.00,CLR,,0.00,WeatherDisplay:10.37,2013-02-11 06:27:00,
2013-02-11 01:32:00,48.8,47.4,30.30,ENE,78,0.6,1.0,95,0.00,CLR,,0.00,WeatherDisplay:10.37,2013-02-11 06:32:00,
2013-02-11 01:37:00,48.8,47.4,30.29,ENE,78,1.5,2.3,95,0.00,CLR,,0.00,WeatherDisplay:10.37,2013-02-11 06:37:00,
2013-02-11 01:42:00,49.0,47.6,30.28,East,85,1.9,3.5,95,0.00,CLR,,0.00,WeatherDisplay:10.37,2013-02-11 06:42:00,
2013-02-11 01:48:00,49.2,48.1,30.28,East,90,1.3,3.5,96,0.00,CLR,,0.00,WeatherDisplay:10.37,2013-02-11 06:48:00,
2013-02-11 01:53:00,50.0,48.9,30.26,SSE,165,3.4,4.0,96,0.00,CLR,,0.00,WeatherDisplay:10.37,2013-02-11 06:53:00,
2013-02-11 01:58:00,51.6,50.8,30.25,SE,142,3.8,8.1,97,0.00,CLR,,0.00,WeatherDisplay:10.37,2013-02-11 06:58:00,
2013-02-11 02:03:00,53.3,52.2,30.25,SSE,158,4.1,10.4,96,0.00,CLR,,0.00,WeatherDisplay:10.37,2013-02-11 07:03:00,
2013-02-11 02:09:00,54.9,52.9,30.25,South,171,4.8,6.9,93,0.00,CLR,,0.00,WeatherDisplay:10.37,2013-02-11 07:09:00,
2013-02-11 02:14:00,56.3,53.4,30.25,South,171,6.3,11.0,90,0.00,CLR,,0.00,WeatherDisplay:10.37,2013-02-11 07:14:00,
2013-02-11 02:19:00,57.3,54.1,30.24,SSE,151,5.3,9.2,89,0.00,CLR,,0.00,WeatherDisplay:10.37,2013-02-11 07:19:00,
2013-02-11 02:24:00,57.6,54.1,30.24,South,171,6.0,9.0,88,0.00,CLR,,0.00,WeatherDisplay:10.37,2013-02-11 07:24:00,
2013-02-11 02:29:00,57.8,54.0,30.24,South,169,6.0,10.0,87,0.00,CLR,,0.00,WeatherDisplay:10.37,2013-02-11 07:29:00,
2013-02-11 02:35:00,58.2,54.3,30.24,SE,136,6.4,10.4,87,0.00,CLR,,0.00,WeatherDisplay:10.37,2013-02-11 07:35:00,
2013-02-11 02:40:00,58.3,54.4,30.23,South,186,2.9,4.6,87,0.00,CLR,,0.00,WeatherDisplay:10.37,2013-02-11 07:40:00,
2013-02-11 02:45:00,58.3,54.4,30.23,SSE,167,5.9,10.4,87,0.00,CLR,,0.00,WeatherDisplay:10.37,2013-02-11 07:45:00,
2013-02-11 02:50:00,58.4,54.2,30.23,SSE,150,4.8,5.8,86,0.00,CLR,,0.00,WeatherDisplay:10.37,2013-02-11 07:50:00,
2013-02-11 02:55:00,58.4,54.2,30.22,SSE,165,4.9,8.1,86,0.00,CLR,,0.00,WeatherDisplay:10.37,2013-02-11 07:55:00,
2013-02-11 03:00:00,58.5,54.0,30.22,South,169,5.7,8.1,85,0.00,CLR,,0.00,WeatherDisplay:10.37,2013-02-11 08:00:00,
2013-02-11 03:06:00,58.6,54.1,30.22,SSE,155,3.0,6.9,85,0.00,CLR,,0.00,WeatherDisplay:10.37,2013-02-11 08:06:00,
2013-02-11 03:11:00,58.7,54.2,30.22,SSW,194,7.8,16.1,85,0.00,CLR,,0.00,WeatherDisplay:10.37,2013-02-11 08:11:00,
2013-02-11 03:16:00,58.9,54.1,30.21,SW,234,5.2,8.1,84,0.00,CLR,,0.00,WeatherDisplay:10.37,2013-02-11 08:16:00,
2013-02-11 03:21:00,59.1,54.3,30.20,SSE,158,4.5,13.8,84,0.00,CLR,,0.00,WeatherDisplay:10.37,2013-02-11 08:21:00,
2013-02-11 03:26:00,59.3,54.1,30.20,SSE,160,4.2,10.4,83,0.00,CLR,,0.00,WeatherDisplay:10.37,2013-02-11 08:26:00,
2013-02-11 03:32:00,59.4,54.2,30.20,SE,130,4.9,8.1,83,0.00,CLR,,0.00,WeatherDisplay:10.37,2013-02-11 08:32:00,
2013-02-11 03:37:00,59.6,54.4,30.19,SE,137,4.5,8.0,83,0.00,CLR,,0.00,WeatherDisplay:10.37,2013-02-11 08:37:00,
2013-02-11 03:42:00,59.7,54.5,30.19,South,172,6.8,16.1,83,0.00,CLR,,0.00,WeatherDisplay:10.37,2013-02-11 08:42:00,
2013-02-11 03:47:00,59.9,54.7,30.19,SSE,161,5.5,11.5,83,0.00,CLR,,0.00,WeatherDisplay:10.37,2013-02-11 08:47:00,
2013-02-11 03:53:00,60.0,54.8,30.18,SSW,203,5.9,10.0,83,0.00,CLR,,0.00,WeatherDisplay:10.37,2013-02-11 08:53:00,
2013-02-11 03:58:00,60.0,54.8,30.18,SSE,150,7.2,9.2,83,0.00,CLR,,0.00,WeatherDisplay:10.37,2013-02-11 08:58:00,
2013-02-11 04:03:00,60.1,54.9,30.18,South,185,5.7,9.2,83,0.00,CLR,,0.00,WeatherDisplay:10.37,2013-02-11 09:03:00,
2013-02-11 04:08:00,60.1,54.9,30.18,SSE,163,7.1,8.0,83,0.00,CLR,,0.00,WeatherDisplay:10.37,2013-02-11 09:08:00,
2013-02-11 04:13:00,60.2,55.0,30.18,SE,140,6.4,10.4,83,0.00,CLR,,0.00,WeatherDisplay:10.37,2013-02-11 09:13:00,
2013-02-11 04:19:00,60.3,55.1,30.18,South,179,4.8,9.0,83,0.00,CLR,,0.00,WeatherDisplay:10.37,2013-02-11 09:19:00,
2013-02-11 04:24:00,60.3,55.1,30.18,SSW,213,5.2,8.0,83,0.00,CLR,,0.00,WeatherDisplay:10.37,2013-02-11 09:24:00,
2013-02-11 04:29:00,60.5,55.3,30.18,SSE,167,6.1,10.4,83,0.00,CLR,,0.00,WeatherDisplay:10.37,2013-02-11 09:29:00,
2013-02-11 04:34:00,60.6,55.4,30.18,South,178,5.0,13.0,83,0.00,CLR,,0.00,WeatherDisplay:10.37,2013-02-11 09:34:00,
2013-02-11 04:39:00,60.6,55.4,30.18,SSE,167,6.0,12.0,83,0.00,CLR,,0.00,WeatherDisplay:10.37,2013-02-11 09:39:00,
2013-02-11 04:45:00,60.7,55.5,30.18,SSE,155,4.2,5.8,83,0.00,CLR,,0.00,WeatherDisplay:10.37,2013-02-11 09:45:00,
2013-02-11 04:50:00,60.9,55.7,30.18,SSW,194,4.8,9.2,83,0.00,CLR,,0.00,WeatherDisplay:10.37,2013-02-11 09:50:00,
2013-02-11 04:55:00,61.1,55.9,30.18,SSE,161,7.4,11.5,83,0.00,CLR,,0.00,WeatherDisplay:10.37,2013-02-11 09:55:00,
2013-02-11 05:00:00,61.3,56.1,30.18,South,188,4.9,11.5,83,0.00,CLR,,0.00,WeatherDisplay:10.37,2013-02-11 10:00:00,
2013-02-11 05:05:00,61.6,56.4,30.18,South,177,7.2,11.5,83,0.00,CLR,,0.00,WeatherDisplay:10.37,2013-02-11 10:05:00,
2013-02-11 05:11:00,61.9,56.3,30.18,SSE,153,6.8,13.8,82,0.00,CLR,,0.00,WeatherDisplay:10.37,2013-02-11 10:11:00,
2013-02-11 05:16:00,62.2,56.3,30.18,South,178,6.2,9.0,81,0.00,CLR,,0.00,WeatherDisplay:10.37,2013-02-11 10:16:00,
2013-02-11 05:21:00,62.3,56.4,30.18,SSW,198,5.5,11.5,81,0.00,CLR,,0.00,WeatherDisplay:10.37,2013-02-11 10:21:00,
2013-02-11 05:26:00,62.2,56.3,30.18,SSW,205,7.5,10.4,81,0.00,CLR,,0.00,WeatherDisplay:10.37,2013-02-11 10:26:00,
2013-02-11 05:32:00,62.3,56.4,30.18,SW,233,9.5,12.7,81,0.00,CLR,,0.00,WeatherDisplay:10.37,2013-02-11 10:32:00,
2013-02-11 05:37:00,62.2,56.6,30.17,South,180,6.2,10.0,82,0.00,CLR,,0.00,WeatherDisplay:10.37,2013-02-11 10:37:00,
2013-02-11 05:42:00,62.0,56.8,30.17,SSW,194,7.3,15.0,83,0.00,CLR,,0.00,WeatherDisplay:10.37,2013-02-11 10:42:00,
2013-02-11 05:47:00,61.9,56.7,30.16,South,172,7.7,13.0,83,0.00,CLR,,0.00,WeatherDisplay:10.37,2013-02-11 10:47:00,
2013-02-11 05:52:00,62.0,57.1,30.16,SSW,201,8.7,13.8,84,0.00,CLR,,0.00,WeatherDisplay:10.37,2013-02-11 10:52:00,
2013-02-11 05:58:00,62.2,57.3,30.16,SSW,197,10.4,18.4,84,0.00,CLR,,0.01,WeatherDisplay:10.37,2013-02-11 10:58:00,
2013-02-11 06:03:00,62.2,57.3,30.16,SSE,165,8.6,15.0,84,0.01,RA,,0.01,WeatherDisplay:10.37,2013-02-11 11:03:00,
2013-02-11 06:08:00,62.2,57.3,30.15,SSW,202,12.2,17.3,84,0.01,RA,,0.01,WeatherDisplay:10.37,2013-02-11 11:08:00,
2013-02-11 06:13:00,62.2,57.6,30.15,WSW,242,5.2,13.8,85,0.01,CLR,,0.01,WeatherDisplay:10.37,2013-02-11 11:13:00,
2013-02-11 06:18:00,62.4,57.8,30.15,SSE,161,6.8,17.3,85,0.01,CLR,,0.01,WeatherDisplay:10.37,2013-02-11 11:18:00,
2013-02-11 06:23:00,62.4,57.8,30.15,South,187,6.8,8.1,85,0.01,CLR,,0.01,WeatherDisplay:10.37,2013-02-11 11:23:00,
2013-02-11 06:29:00,62.5,57.9,30.16,South,190,7.0,11.0,85,0.01,CLR,,0.01,WeatherDisplay:10.37,2013-02-11 11:29:00,
2013-02-11 06:34:00,62.4,57.8,30.16,SSW,193,8.4,12.7,85,0.01,CLR,,0.01,WeatherDisplay:10.37,2013-02-11 11:34:00,
2013-02-11 06:39:00,62.3,58.1,30.15,SSW,213,9.2,11.5,86,0.01,CLR,,0.01,WeatherDisplay:10.37,2013-02-11 11:39:00,
2013-02-11 06:44:00,62.3,57.7,30.16,SSE,158,4.8,12.7,85,0.01,CLR,,0.01,WeatherDisplay:10.37,2013-02-11 11:44:00,
2013-02-11 06:49:00,62.4,57.8,30.16,SSW,192,6.1,12.7,85,0.01,CLR,,0.01,WeatherDisplay:10.37,2013-02-11 11:49:00,
2013-02-11 06:54:00,62.5,57.6,30.16,South,187,6.0,13.0,84,0.00,,,0.01,WeatherDisplay:10.37,2013-02-11 11:54:00,
2013-02-11 06:59:00,62.5,57.3,30.16,South,188,8.0,14.0,83,0.00,CLR,,0.01,WeatherDisplay:10.37,2013-02-11 11:59:00,
2013-02-11 07:04:00,62.6,57.4,30.16,South,184,8.0,14.0,83,0.00,CLR,,0.01,WeatherDisplay:10.37,2013-02-11 12:04:00,
2013-02-11 07:09:00,62.6,57.3,30.16,South,187,7.0,14.0,83,0.00,CLR,,0.01,WeatherDisplay:10.37,2013-02-11 12:09:00,
2013-02-11 07:15:00,62.4,57.2,30.16,SSW,212,5.8,11.5,83,0.00,CLR,,0.01,WeatherDisplay:10.37,2013-02-11 12:15:00,
2013-02-11 07:20:00,62.5,57.3,30.16,SSW,208,6.1,12.7,83,0.00,CLR,,0.01,WeatherDisplay:10.37,2013-02-11 12:20:00,
2013-02-11 07:25:00,62.5,57.3,30.16,South,179,5.4,9.2,83,0.00,CLR,,0.01,WeatherDisplay:10.37,2013-02-11 12:25:00,
2013-02-11 07:30:00,62.6,57.7,30.16,South,171,6.5,13.8,84,0.00,CLR,,0.01,WeatherDisplay:10.37,2013-02-11 12:30:00,
2013-02-11 07:36:00,62.7,57.8,30.16,South,187,5.8,8.1,84,0.00,CLR,,0.01,WeatherDisplay:10.37,2013-02-11 12:36:00,
2013-02-11 07:41:00,62.7,57.8,30.16,SW,231,6.4,15.0,84,0.00,CLR,,0.01,WeatherDisplay:10.37,2013-02-11 12:41:00,
2013-02-11 07:46:00,62.4,57.8,30.16,SSW,204,4.6,13.8,85,0.00,CLR,,0.01,WeatherDisplay:10.37,2013-02-11 12:46:00,
2013-02-11 07:51:00,62.0,57.4,30.16,SW,220,6.5,10.4,85,0.00,CLR,,0.01,WeatherDisplay:10.37,2013-02-11 12:51:00,
2013-02-11 07:57:00,61.6,57.4,30.16,SW,221,6.4,10.4,86,0.00,CLR,,0.01,WeatherDisplay:10.37,2013-02-11 12:57:00,
2013-02-11 08:02:00,61.3,57.1,30.17,SSW,196,4.6,11.0,86,0.00,CLR,,0.01,WeatherDisplay:10.37,2013-02-11 13:02:00,
2013-02-11 08:07:00,61.2,57.0,30.17,SSW,208,3.3,5.8,86,0.00,CLR,,0.01,WeatherDisplay:10.37,2013-02-11 13:07:00,
2013-02-11 08:12:00,61.1,57.2,30.17,SSW,193,4.6,6.9,87,0.00,CLR,,0.01,WeatherDisplay:10.37,2013-02-11 13:12:00,
2013-02-11 08:18:00,60.9,57.0,30.17,SSW,200,5.1,8.1,87,0.00,CLR,,0.01,WeatherDisplay:10.37,2013-02-11 13:18:00,
2013-02-11 08:23:00,60.7,57.1,30.17,SSW,193,3.8,5.8,88,0.00,CLR,,0.01,WeatherDisplay:10.37,2013-02-11 13:23:00,
2013-02-11 08:28:00,60.6,57.0,30.17,SSW,203,5.1,5.8,88,0.00,CLR,,0.01,WeatherDisplay:10.37,2013-02-11 13:28:00,
2013-02-11 08:33:00,60.6,57.3,30.17,SSW,198,5.3,10.4,89,0.00,CLR,,0.01,WeatherDisplay:10.37,2013-02-11 13:33:00,
2013-02-11 08:39:00,60.7,57.4,30.17,South,184,4.6,10.4,89,0.00,CLR,,0.01,WeatherDisplay:10.37,2013-02-11 13:39:00,
2013-02-11 08:44:00,60.8,57.5,30.17,South,171,5.4,6.9,89,0.00,CLR,,0.01,WeatherDisplay:10.37,2013-02-11 13:44:00,
2013-02-11 08:49:00,60.7,57.4,30.17,SSW,207,3.8,10.4,89,0.00,CLR,,0.01,WeatherDisplay:10.37,2013-02-11 13:49:00,
2013-02-11 08:54:00,60.7,57.4,30.17,SSW,200,4.0,9.0,89,0.00,CLR,,0.01,WeatherDisplay:10.37,2013-02-11 13:54:00,
2013-02-11 08:59:00,60.7,57.4,30.16,SSW,192,5.4,8.1,89,0.00,CLR,,0.01,WeatherDisplay:10.37,2013-02-11 13:59:00,
2013-02-11 09:04:00,60.8,57.5,30.16,South,190,5.0,9.0,89,0.00,CLR,,0.01,WeatherDisplay:10.37,2013-02-11 14:04:00,
2013-02-11 09:09:00,60.8,57.5,30.16,SSE,158,5.3,9.2,89,0.00,CLR,,0.01,WeatherDisplay:10.37,2013-02-11 14:09:00,
2013-02-11 09:14:00,60.7,57.5,30.16,SSW,195,5.0,12.0,89,0.00,CLR,,0.01,WeatherDisplay:10.37,2013-02-11 14:14:00,
2013-02-11 09:19:00,60.8,57.5,30.16,SW,219,6.1,9.2,89,0.00,CLR,,0.01,WeatherDisplay:10.37,2013-02-11 14:19:00,
2013-02-11 09:24:00,60.9,57.6,30.16,SSW,198,6.0,13.0,89,0.00,CLR,,0.01,WeatherDisplay:10.37,2013-02-11 14:24:00,
2013-02-11 09:29:00,61.1,57.8,30.15,SSW,196,4.9,8.1,89,0.00,CLR,,0.01,WeatherDisplay:10.37,2013-02-11 14:29:00,
2013-02-11 09:34:00,61.2,57.9,30.16,SSW,198,6.0,12.0,89,0.00,CLR,,0.01,WeatherDisplay:10.37,2013-02-11 14:34:00,
2013-02-11 09:39:00,61.2,57.9,30.16,South,172,7.5,11.5,89,0.00,CLR,,0.01,WeatherDisplay:10.37,2013-02-11 14:39:00,
2013-02-11 09:44:00,61.1,57.8,30.16,SSW,194,6.0,9.0,89,0.00,CLR,,0.01,WeatherDisplay:10.37,2013-02-11 14:44:00,
2013-02-11 09:49:00,61.1,57.8,30.16,SSW,196,5.0,12.0,89,0.00,CLR,,0.01,WeatherDisplay:10.37,2013-02-11 14:49:00,
2013-02-11 09:54:00,61.0,57.7,30.15,SSW,196,6.0,10.0,89,0.00,CLR,,0.01,WeatherDisplay:10.37,2013-02-11 14:54:00,
2013-02-11 09:59:00,60.9,57.6,30.15,SSW,194,5.0,9.0,89,0.00,CLR,,0.01,WeatherDisplay:10.37,2013-02-11 14:59:00,
2013-02-11 10:04:00,60.8,57.8,30.15,South,184,5.0,7.0,90,0.00,CLR,,0.01,WeatherDisplay:10.37,2013-02-11 15:04:00,
2013-02-11 10:09:00,60.8,57.8,30.15,SSW,192,5.0,12.0,90,0.00,CLR,,0.01,WeatherDisplay:10.37,2013-02-11 15:09:00,
2013-02-11 10:14:00,60.8,57.8,30.15,SSW,196,2.0,12.0,90,0.00,CLR,,0.01,WeatherDisplay:10.37,2013-02-11 15:14:00,
2013-02-11 10:19:00,60.9,57.9,30.15,SSW,194,6.0,9.0,90,0.00,CLR,,0.01,WeatherDisplay:10.37,2013-02-11 15:19:00,
2013-02-11 10:24:00,60.9,58.3,30.15,SSW,199,5.0,7.0,91,0.00,CLR,,0.01,WeatherDisplay:10.37,2013-02-11 15:24:00,
2013-02-11 10:29:00,60.8,58.1,30.15,SSW,198,5.0,9.0,91,0.00,CLR,,0.01,WeatherDisplay:10.37,2013-02-11 15:29:00,
2013-02-11 10:35:00,60.7,58.1,30.14,SSW,208,4.0,8.0,91,0.00,CLR,,0.01,WeatherDisplay:10.37,2013-02-11 15:35:00,
2013-02-11 10:40:00,60.8,58.2,30.15,South,184,3.9,8.1,91,0.00,CLR,,0.01,WeatherDisplay:10.37,2013-02-11 15:40:00,
2013-02-11 10:45:00,60.8,58.5,30.14,South,190,6.8,9.2,92,0.00,CLR,,0.01,WeatherDisplay:10.37,2013-02-11 15:45:00,
2013-02-11 10:50:00,60.9,58.6,30.14,SSW,196,7.8,12.7,92,0.00,CLR,,0.01,WeatherDisplay:10.37,2013-02-11 15:50:00,
2013-02-11 10:56:00,60.9,58.6,30.14,South,191,3.9,5.8,92,0.00,CLR,,0.01,WeatherDisplay:10.37,2013-02-11 15:56:00,
2013-02-11 11:01:00,60.9,58.6,30.14,SSE,148,3.1,5.8,92,0.00,CLR,,0.01,WeatherDisplay:10.37,2013-02-11 16:01:00,
2013-02-11 11:06:00,60.9,58.6,30.14,SSW,208,3.8,8.1,92,0.00,CLR,,0.01,WeatherDisplay:10.37,2013-02-11 16:06:00,
2013-02-11 11:11:00,60.7,58.4,30.14,SSW,206,2.8,6.9,92,0.00,CLR,,0.01,WeatherDisplay:10.37,2013-02-11 16:11:00,
2013-02-11 11:16:00,60.7,58.4,30.13,South,187,3.3,10.4,92,0.00,CLR,,0.01,WeatherDisplay:10.37,2013-02-11 16:16:00,
2013-02-11 11:21:00,60.6,58.6,30.13,SSW,196,4.4,6.9,93,0.01,RA,,0.02,WeatherDisplay:10.37,2013-02-11 16:21:00,
2013-02-11 11:27:00,60.6,58.6,30.13,South,184,3.8,7.0,93,0.01,RA,,0.02,WeatherDisplay:10.37,2013-02-11 16:27:00,
2013-02-11 11:32:00,60.4,58.4,30.12,SSW,194,5.7,9.2,93,0.01,CLR,,0.02,WeatherDisplay:10.37,2013-02-11 16:32:00,
2013-02-11 11:37:00,60.3,58.3,30.12,SSW,206,3.6,5.8,93,0.01,CLR,,0.02,WeatherDisplay:10.37,2013-02-11 16:37:00,
2013-02-11 11:42:00,60.1,58.1,30.12,SSW,198,4.1,5.8,93,0.01,CLR,,0.02,WeatherDisplay:10.37,2013-02-11 16:42:00,
2013-02-11 11:47:00,60.1,58.4,30.12,SSW,209,4.3,6.9,94,0.01,CLR,,0.02,WeatherDisplay:10.37,2013-02-11 16:47:00,
2013-02-11 11:53:00,60.2,58.5,30.11,SSW,200,3.6,6.9,94,0.01,CLR,,0.02,WeatherDisplay:10.37,2013-02-11 16:53:00,
2013-02-11 11:58:00,60.3,58.6,30.11,SSE,163,4.4,4.6,94,0.01,CLR,,0.02,WeatherDisplay:10.37,2013-02-11 16:58:00,
2013-02-11 12:03:00,60.2,58.5,30.11,SSW,198,4.7,5.8,94,0.01,CLR,,0.02,WeatherDisplay:10.37,2013-02-11 17:03:00,
2013-02-11 12:08:00,60.2,58.8,30.11,South,186,1.4,3.5,95,0.02,RA,,0.03,WeatherDisplay:10.37,2013-02-11 17:08:00,
2013-02-11 12:13:00,60.4,59.0,30.11,South,188,2.5,5.0,95,0.03,RA,,0.04,WeatherDisplay:10.37,2013-02-11 17:13:00,
2013-02-11 12:18:00,60.5,59.1,30.11,SW,227,3.0,4.6,95,0.03,RA,,0.05,WeatherDisplay:10.37,2013-02-11 17:18:00,
2013-02-11 12:24:00,60.7,59.6,30.10,SSW,192,2.6,4.6,96,0.04,RA,,0.06,WeatherDisplay:10.37,2013-02-11 17:24:00,
2013-02-11 12:29:00,60.6,59.5,30.10,SSW,193,1.8,3.5,96,0.06,RA,,0.08,WeatherDisplay:10.37,2013-02-11 17:29:00,
2013-02-11 12:34:00,60.5,59.4,30.09,SSW,196,1.6,3.5,96,0.07,RA,,0.09,WeatherDisplay:10.37,2013-02-11 17:34:00,
2013-02-11 12:39:00,60.5,59.4,30.09,SSW,194,1.5,3.5,96,0.08,RA,,0.10,WeatherDisplay:10.37,2013-02-11 17:39:00,
2013-02-11 12:44:00,60.5,59.4,30.09,SSW,200,1.9,3.0,96,0.08,RA,,0.10,WeatherDisplay:10.37,2013-02-11 17:44:00,
2013-02-11 12:49:00,60.5,59.4,30.08,South,180,3.1,4.6,96,0.09,RA,,0.11,WeatherDisplay:10.37,2013-02-11 17:49:00,
2013-02-11 12:54:00,60.5,59.4,30.08,SSW,197,3.0,9.0,96,0.00,RA,,0.11,WeatherDisplay:10.37,2013-02-11 17:54:00,
2013-02-11 12:59:00,60.0,58.8,30.08,SSW,196,3.0,8.0,96,0.00,,,0.11,WeatherDisplay:10.37,2013-02-11 17:59:00,
2013-02-11 13:04:00,59.5,58.4,30.07,SSW,197,2.0,6.0,96,0.00,,,0.11,WeatherDisplay:10.37,2013-02-11 18:04:00,
2013-02-11 13:09:00,59.3,58.1,30.07,SSW,200,2.0,7.0,96,0.00,,,0.11,WeatherDisplay:10.37,2013-02-11 18:09:00,
2013-02-11 13:14:00,59.3,58.4,30.06,SSW,203,2.0,8.0,97,0.00,,,0.11,WeatherDisplay:10.37,2013-02-11 18:14:00,
2013-02-11 13:19:00,59.5,58.6,30.06,SSW,195,2.0,8.0,97,0.00,,,0.11,WeatherDisplay:10.37,2013-02-11 18:19:00,
2013-02-11 13:25:00,59.6,58.7,30.06,SW,215,4.3,8.1,97,0.04,CLR,,0.11,WeatherDisplay:10.37,2013-02-11 18:25:00,
2013-02-11 13:30:00,59.7,58.8,30.05,SSW,204,4.0,5.0,97,0.03,CLR,,0.11,WeatherDisplay:10.37,2013-02-11 18:30:00,
2013-02-11 13:35:00,59.6,58.7,30.05,SSW,193,3.3,8.1,97,0.02,CLR,,0.11,WeatherDisplay:10.37,2013-02-11 18:35:00,
2013-02-11 13:40:00,59.6,58.7,30.04,SSW,192,5.0,6.0,97,0.01,CLR,,0.11,WeatherDisplay:10.37,2013-02-11 18:40:00,
2013-02-11 13:45:00,59.6,58.7,30.04,SSW,210,5.3,10.4,97,0.01,CLR,,0.11,WeatherDisplay:10.37,2013-02-11 18:45:00,
2013-02-11 13:50:00,59.5,58.6,30.04,SSW,198,6.6,11.5,97,0.00,CLR,,0.11,WeatherDisplay:10.37,2013-02-11 18:50:00,
2013-02-11 13:56:00,59.5,58.6,30.04,SSW,209,6.5,11.5,97,0.00,CLR,,0.11,WeatherDisplay:10.37,2013-02-11 18:56:00,
2013-02-11 14:01:00,59.6,58.7,30.03,South,175,4.5,11.5,97,0.00,CLR,,0.11,WeatherDisplay:10.37,2013-02-11 19:01:00,
2013-02-11 14:06:00,59.6,58.7,30.02,South,185,10.5,17.3,97,0.01,RA,,0.12,WeatherDisplay:10.37,2013-02-11 19:06:00,
2013-02-11 14:11:00,59.8,58.9,29.99,South,190,12.6,16.1,97,0.01,RA,,0.12,WeatherDisplay:10.37,2013-02-11 19:11:00,
2013-02-11 14:16:00,60.4,59.8,29.99,South,182,10.2,13.8,98,0.02,RA,,0.13,WeatherDisplay:10.37,2013-02-11 19:16:00,
2013-02-11 14:22:00,60.5,59.6,30.00,SSW,195,8.9,12.7,97,0.02,RA,,0.13,WeatherDisplay:10.37,2013-02-11 19:22:00,
2013-02-11 14:27:00,60.5,59.6,30.00,SSE,165,8.8,17.3,97,0.02,CLR,,0.13,WeatherDisplay:10.37,2013-02-11 19:27:00,
2013-02-11 14:32:00,60.6,59.7,30.00,SE,144,9.4,15.0,97,0.02,CLR,,0.13,WeatherDisplay:10.37,2013-02-11 19:32:00,
2013-02-11 14:37:00,60.5,59.6,30.00,SW,215,8.8,17.3,97,0.02,CLR,,0.13,WeatherDisplay:10.37,2013-02-11 19:37:00,
2013-02-11 14:42:00,60.6,59.7,30.00,SSW,213,10.8,19.6,97,0.03,RA,,0.14,WeatherDisplay:10.37,2013-02-11 19:42:00,
2013-02-11 14:48:00,60.6,59.7,30.02,SW,221,7.6,9.2,97,0.03,RA,,0.14,WeatherDisplay:10.37,2013-02-11 19:48:00,
2013-02-11 14:53:00,60.6,59.7,30.03,SSW,208,7.3,11.5,97,0.03,,,0.14,WeatherDisplay:10.37,2013-02-11 19:53:00,
2013-02-11 14:58:00,61.0,60.4,30.03,SW,216,5.5,17.3,98,0.03,CLR,,0.14,WeatherDisplay:10.37,2013-02-11 19:58:00,
2013-02-11 15:03:00,61.3,60.7,30.03,SW,225,4.6,11.5,98,0.03,CLR,,0.14,WeatherDisplay:10.37,2013-02-11 20:03:00,
2013-02-11 15:08:00,61.4,60.8,30.03,SSW,204,4.5,6.9,98,0.02,CLR,,0.14,WeatherDisplay:10.37,2013-02-11 20:08:00,
2013-02-11 15:13:00,61.4,60.8,30.03,WSW,245,4.2,8.1,98,0.02,CLR,,0.14,WeatherDisplay:10.37,2013-02-11 20:13:00,
2013-02-11 15:19:00,61.4,60.8,30.03,West,262,3.8,5.0,98,0.02,RA,,0.15,WeatherDisplay:10.37,2013-02-11 20:19:00,
2013-02-11 15:24:00,61.4,60.8,30.03,West,262,3.2,4.0,98,0.02,RA,,0.15,WeatherDisplay:10.37,2013-02-11 20:24:00,
2013-02-11 15:29:00,61.3,60.4,30.03,WSW,257,5.4,7.0,97,0.02,CLR,,0.15,WeatherDisplay:10.37,2013-02-11 20:29:00,
2013-02-11 15:34:00,61.1,60.2,30.03,West,269,4.0,5.0,97,0.02,CLR,,0.15,WeatherDisplay:10.37,2013-02-11 20:34:00,
2013-02-11 15:39:00,61.0,60.1,30.04,West,271,4.7,9.2,97,0.02,CLR,,0.15,WeatherDisplay:10.37,2013-02-11 20:39:00,
2013-02-11 15:44:00,60.8,59.9,30.04,West,260,5.0,9.0,97,0.00,,,0.15,WeatherDisplay:10.37,2013-02-11 20:44:00,
2013-02-11 15:49:00,60.7,59.8,30.04,WSW,256,3.0,8.0,97,0.00,,,0.15,WeatherDisplay:10.37,2013-02-11 20:49:00,
2013-02-11 15:55:00,60.7,59.8,30.04,WSW,238,5.0,14.0,97,0.01,CLR,,0.15,WeatherDisplay:10.37,2013-02-11 20:55:00,
2013-02-11 16:00:00,60.6,59.7,30.03,West,261,4.8,10.4,97,0.01,CLR,,0.15,WeatherDisplay:10.37,2013-02-11 21:00:00,
2013-02-11 16:05:00,60.6,59.7,30.03,SSW,201,5.5,15.0,97,0.01,CLR,,0.15,WeatherDisplay:10.37,2013-02-11 21:05:00,
2013-02-11 16:10:00,60.7,59.8,30.03,WSW,244,4.6,5.8,97,0.01,CLR,,0.15,WeatherDisplay:10.37,2013-02-11 21:10:00,
2013-02-11 16:16:00,60.6,59.7,30.03,WSW,250,5.1,10.4,97,0.01,CLR,,0.15,WeatherDisplay:10.37,2013-02-11 21:16:00,
2013-02-11 16:21:00,60.5,59.6,30.03,WSW,245,4.1,6.9,97,0.00,CLR,,0.15,WeatherDisplay:10.37,2013-02-11 21:21:00,
2013-02-11 16:26:00,60.3,59.4,30.03,SW,217,3.6,5.8,97,0.00,CLR,,0.15,WeatherDisplay:10.37,2013-02-11 21:26:00,
2013-02-11 16:31:00,60.2,59.3,30.02,SW,226,5.0,8.1,97,0.00,CLR,,0.15,WeatherDisplay:10.37,2013-02-11 21:31:00,
2013-02-11 16:36:00,60.2,59.3,30.02,SSW,196,4.7,8.1,97,0.00,CLR,,0.15,WeatherDisplay:10.37,2013-02-11 21:36:00,
2013-02-11 16:41:00,60.1,59.2,30.02,SSE,164,3.3,4.6,97,0.00,CLR,,0.15,WeatherDisplay:10.37,2013-02-11 21:41:00,
2013-02-11 16:46:00,60.0,59.1,30.03,SSW,207,3.4,4.6,97,0.00,CLR,,0.15,WeatherDisplay:10.37,2013-02-11 21:46:00,
2013-02-11 16:52:00,59.9,59.0,30.02,SSW,199,3.1,4.6,97,0.00,CLR,,0.15,WeatherDisplay:10.37,2013-02-11 21:52:00,
2013-02-11 16:57:00,59.7,58.8,30.02,SW,215,3.4,4.6,97,0.00,CLR,,0.15,WeatherDisplay:10.37,2013-02-11 21:57:00,
2013-02-11 17:02:00,59.6,58.7,30.02,SSW,192,4.4,7.0,97,0.00,CLR,,0.15,WeatherDisplay:10.37,2013-02-11 22:02:00,
2013-02-11 17:07:00,59.6,58.7,30.02,South,188,3.3,4.6,97,0.00,CLR,,0.15,WeatherDisplay:10.37,2013-02-11 22:07:00,
2013-02-11 17:13:00,59.5,58.6,30.01,SSW,211,2.4,7.0,97,0.00,CLR,,0.15,WeatherDisplay:10.37,2013-02-11 22:13:00,
2013-02-11 17:18:00,59.4,58.5,30.00,SSW,211,4.8,9.2,97,0.00,CLR,,0.15,WeatherDisplay:10.37,2013-02-11 22:18:00,
2013-02-11 17:23:00,59.3,58.4,30.00,SW,228,3.5,8.1,97,0.00,CLR,,0.15,WeatherDisplay:10.37,2013-02-11 22:23:00,
2013-02-11 17:28:00,59.2,58.1,30.00,SSW,204,4.9,6.9,96,0.00,CLR,,0.15,WeatherDisplay:10.37,2013-02-11 22:28:00,
2013-02-11 17:34:00,59.2,58.1,30.00,SSW,203,3.4,4.6,96,0.00,CLR,,0.15,WeatherDisplay:10.37,2013-02-11 22:34:00,
2013-02-11 17:39:00,59.1,58.0,30.01,SSW,194,4.9,11.5,96,0.00,CLR,,0.15,WeatherDisplay:10.37,2013-02-11 22:39:00,
2013-02-11 17:44:00,59.1,58.0,30.00,SSE,161,5.8,7.0,96,0.00,CLR,,0.15,WeatherDisplay:10.37,2013-02-11 22:44:00,
2013-02-11 17:49:00,59.3,58.4,30.00,SE,143,4.0,6.9,97,0.00,CLR,,0.15,WeatherDisplay:10.37,2013-02-11 22:49:00,
2013-02-11 17:54:00,59.3,58.4,30.00,SSW,205,5.0,12.0,97,0.00,CLR,,0.15,WeatherDisplay:10.37,2013-02-11 22:54:00,
2013-02-11 17:59:00,59.4,58.5,30.00,SSW,202,5.0,12.0,97,0.00,CLR,,0.15,WeatherDisplay:10.37,2013-02-11 22:59:00,
2013-02-11 18:05:00,59.4,58.5,30.00,SSW,205,5.0,12.0,97,0.00,CLR,,0.15,WeatherDisplay:10.37,2013-02-11 23:05:00,
2013-02-11 18:10:00,59.4,58.6,30.00,SSW,205,6.0,16.0,97,0.00,CLR,,0.15,WeatherDisplay:10.37,2013-02-11 23:10:00,
2013-02-11 18:15:00,59.6,58.7,30.00,SSW,210,3.0,12.0,97,0.00,CLR,,0.15,WeatherDisplay:10.37,2013-02-11 23:15:00,
2013-02-11 18:20:00,59.6,58.5,30.00,SW,216,5.0,10.0,96,0.00,CLR,,0.15,WeatherDisplay:10.37,2013-02-11 23:20:00,
2013-02-11 18:25:00,59.8,58.7,30.00,SSW,210,6.0,12.0,96,0.00,CLR,,0.15,WeatherDisplay:10.37,2013-02-11 23:25:00,
2013-02-11 18:30:00,59.9,58.8,30.00,SSW,207,3.0,8.0,96,0.00,CLR,,0.15,WeatherDisplay:10.37,2013-02-11 23:30:00,
2013-02-11 18:35:00,60.0,59.1,30.00,SSW,213,5.0,10.0,97,0.00,CLR,,0.15,WeatherDisplay:10.37,2013-02-11 23:35:00,
2013-02-11 18:40:00,60.2,59.3,30.00,SW,235,5.0,7.0,97,0.00,CLR,,0.15,WeatherDisplay:10.37,2013-02-11 23:40:00,
2013-02-11 18:45:00,60.3,59.2,30.00,SW,232,3.0,8.0,96,0.00,CLR,,0.15,WeatherDisplay:10.37,2013-02-11 23:45:00,
2013-02-11 18:50:00,60.3,59.2,30.00,SW,224,5.0,10.0,96,0.00,CLR,,0.15,WeatherDisplay:10.37,2013-02-11 23:50:00,
2013-02-11 18:55:00,60.4,59.3,30.00,SW,224,4.2,6.9,96,0.00,CLR,,0.15,WeatherDisplay:10.37,2013-02-11 23:55:00,
2013-02-11 19:00:00,60.4,59.3,30.00,SW,225,4.6,5.8,96,0.00,CLR,,0.15,WeatherDisplay:10.37,2013-02-12 00:00:00,
2013-02-11 19:05:00,60.4,59.3,30.00,SW,227,4.3,4.6,96,0.00,CLR,,0.15,WeatherDisplay:10.37,2013-02-12 00:05:00,
2013-02-11 19:11:00,60.5,59.4,30.00,SW,225,4.8,5.8,96,0.00,CLR,,0.15,WeatherDisplay:10.37,2013-02-12 00:11:00,
2013-02-11 19:16:00,60.5,59.4,30.00,West,266,3.7,5.0,96,0.00,CLR,,0.15,WeatherDisplay:10.37,2013-02-12 00:16:00,
2013-02-11 19:21:00,60.5,59.4,30.00,SW,227,3.9,4.6,96,0.00,CLR,,0.15,WeatherDisplay:10.37,2013-02-12 00:21:00,
2013-02-11 19:26:00,60.4,59.3,30.00,SW,229,4.2,5.8,96,0.00,CLR,,0.15,WeatherDisplay:10.37,2013-02-12 00:26:00,
2013-02-11 19:32:00,60.4,59.3,30.00,WSW,254,4.4,5.8,96,0.00,CLR,,0.15,WeatherDisplay:10.37,2013-02-12 00:32:00,
2013-02-11 19:37:00,60.3,59.2,30.00,SW,233,4.1,5.8,96,0.00,CLR,,0.15,WeatherDisplay:10.37,2013-02-12 00:37:00,
2013-02-11 19:42:00,60.3,59.2,30.00,SW,231,3.5,5.8,96,0.00,CLR,,0.15,WeatherDisplay:10.37,2013-02-12 00:42:00,
2013-02-11 19:47:00,60.2,59.1,30.01,SW,227,3.7,4.6,96,0.00,CLR,,0.15,WeatherDisplay:10.37,2013-02-12 00:47:00,
2013-02-11 19:53:00,60.1,59.0,30.01,West,263,3.7,4.6,96,0.00,CLR,,0.15,WeatherDisplay:10.37,2013-02-12 00:53:00,
2013-02-11 19:58:00,60.0,58.9,30.01,SW,235,3.8,5.8,96,0.00,CLR,,0.15,WeatherDisplay:10.37,2013-02-12 00:58:00,
2013-02-11 20:03:00,59.8,58.7,30.01,SW,229,4.6,5.8,96,0.00,CLR,,0.15,WeatherDisplay:10.37,2013-02-12 01:03:00,
2013-02-11 20:09:00,59.8,58.7,30.01,WSW,246,4.0,4.6,96,0.00,CLR,,0.15,WeatherDisplay:10.37,2013-02-12 01:09:00,
2013-02-11 20:14:00,59.8,58.7,30.00,WSW,252,4.1,5.8,96,0.00,CLR,,0.15,WeatherDisplay:10.37,2013-02-12 01:14:00,
2013-02-11 20:19:00,59.7,58.6,30.00,SW,236,3.2,5.0,96,0.00,CLR,,0.15,WeatherDisplay:10.37,2013-02-12 01:19:00,
2013-02-11 20:24:00,59.6,58.5,30.00,WSW,246,3.3,6.9,96,0.00,CLR,,0.15,WeatherDisplay:10.37,2013-02-12 01:24:00,
2013-02-11 20:29:00,59.5,58.4,30.00,WSW,256,3.4,5.0,96,0.00,CLR,,0.15,WeatherDisplay:10.37,2013-02-12 01:29:00,
2013-02-11 20:35:00,59.5,58.4,30.00,SW,236,3.4,4.6,96,0.00,CLR,,0.15,WeatherDisplay:10.37,2013-02-12 01:35:00,
2013-02-11 20:40:00,59.5,58.4,30.00,SSW,205,3.1,4.6,96,0.00,CLR,,0.15,WeatherDisplay:10.37,2013-02-12 01:40:00,
2013-02-11 20:45:00,59.4,58.3,29.99,SW,228,5.0,6.0,96,0.00,CLR,,0.15,WeatherDisplay:10.37,2013-02-12 01:45:00,
2013-02-11 20:50:00,59.5,58.6,29.99,SW,233,3.0,6.0,97,0.00,CLR,,0.15,WeatherDisplay:10.37,2013-02-12 01:50:00,
2013-02-11 20:55:00,59.5,58.3,29.98,WSW,239,3.0,5.0,96,0.00,CLR,,0.15,WeatherDisplay:10.37,2013-02-12 01:55:00,
2013-02-11 21:00:00,59.5,58.6,29.97,SW,225,5.0,10.0,97,0.00,CLR,,0.15,WeatherDisplay:10.37,2013-02-12 02:00:00,
2013-02-11 21:05:00,59.8,58.9,29.95,SSW,210,6.0,13.0,97,0.00,CLR,,0.15,WeatherDisplay:10.37,2013-02-12 02:05:00,
2013-02-11 21:10:00,59.9,58.8,29.96,SSW,212,3.0,14.0,96,0.00,CLR,,0.15,WeatherDisplay:10.37,2013-02-12 02:10:00,
2013-02-11 21:15:00,59.9,58.8,29.96,SW,214,7.0,14.0,96,0.00,CLR,,0.15,WeatherDisplay:10.37,2013-02-12 02:15:00,
2013-02-11 21:20:00,60.1,58.9,29.95,SW,217,5.0,12.0,96,0.00,CLR,,0.15,WeatherDisplay:10.37,2013-02-12 02:20:00,
2013-02-11 21:25:00,60.3,59.2,29.95,SW,221,5.0,10.0,96,0.00,CLR,,0.15,WeatherDisplay:10.37,2013-02-12 02:25:00,
2013-02-11 21:30:00,60.6,59.5,29.94,SW,225,5.2,6.9,96,0.00,CLR,,0.15,WeatherDisplay:10.37,2013-02-12 02:30:00,
2013-02-11 21:35:00,60.7,59.6,29.94,SSW,212,6.0,15.0,96,0.00,CLR,,0.15,WeatherDisplay:10.37,2013-02-12 02:35:00,
2013-02-11 21:40:00,60.8,59.4,29.94,SW,216,5.0,13.0,95,0.00,CLR,,0.15,WeatherDisplay:10.37,2013-02-12 02:40:00,
2013-02-11 21:45:00,60.9,59.4,29.95,SSW,213,7.0,17.0,95,0.00,CLR,,0.15,WeatherDisplay:10.37,2013-02-12 02:45:00,
2013-02-11 21:50:00,60.9,59.5,29.97,WSW,252,5.2,9.2,95,0.00,CLR,,0.15,WeatherDisplay:10.37,2013-02-12 02:50:00,
2013-02-11 21:55:00,60.8,59.4,29.97,WSW,239,6.0,9.0,95,0.00,CLR,,0.15,WeatherDisplay:10.37,2013-02-12 02:55:00,
2013-02-11 22:00:00,60.9,59.5,29.97,SW,233,6.0,12.0,95,0.00,CLR,,0.15,WeatherDisplay:10.37,2013-02-12 03:00:00,
2013-02-11 22:05:00,60.9,59.5,29.97,SW,235,5.0,9.0,95,0.00,CLR,,0.15,WeatherDisplay:10.37,2013-02-12 03:05:00,
2013-02-11 22:10:00,60.8,59.4,29.96,SW,232,6.9,10.4,95,0.00,CLR,,0.15,WeatherDisplay:10.37,2013-02-12 03:10:00,
2013-02-11 22:15:00,60.8,59.4,29.96,SW,230,5.0,9.0,95,0.00,CLR,,0.15,WeatherDisplay:10.37,2013-02-12 03:15:00,
2013-02-11 22:20:00,60.8,59.4,29.95,SW,234,6.0,12.0,95,0.00,CLR,,0.15,WeatherDisplay:10.37,2013-02-12 03:20:00,
2013-02-11 22:25:00,60.8,59.4,29.94,WSW,242,5.0,9.0,95,0.00,CLR,,0.15,WeatherDisplay:10.37,2013-02-12 03:25:00,
2013-02-11 22:30:00,60.8,59.4,29.96,WSW,257,6.0,10.0,95,0.00,CLR,,0.15,WeatherDisplay:10.37,2013-02-12 03:30:00,
2013-02-11 22:35:00,60.8,59.4,29.97,West,272,8.0,14.0,95,0.00,CLR,,0.15,WeatherDisplay:10.37,2013-02-12 03:35:00,
2013-02-11 22:40:00,60.7,59.3,29.97,West,272,9.0,14.0,95,0.00,CLR,,0.15,WeatherDisplay:10.37,2013-02-12 03:40:00,
2013-02-11 22:45:00,60.7,59.2,29.96,West,274,7.0,12.0,95,0.00,CLR,,0.15,WeatherDisplay:10.37,2013-02-12 03:45:00,
2013-02-11 22:50:00,60.7,59.3,29.96,West,278,8.4,11.5,95,0.00,CLR,,0.15,WeatherDisplay:10.37,2013-02-12 03:50:00,
2013-02-11 22:55:00,60.5,59.1,29.96,West,277,7.0,15.0,95,0.00,CLR,,0.15,WeatherDisplay:10.37,2013-02-12 03:55:00,
2013-02-11 23:00:00,60.4,59.0,29.95,West,273,7.4,10.4,95,0.00,CLR,,0.15,WeatherDisplay:10.37,2013-02-12 04:00:00,
2013-02-11 23:05:00,60.3,58.9,29.96,West,270,7.0,12.0,95,0.00,CLR,,0.15,WeatherDisplay:10.37,2013-02-12 04:05:00,
2013-02-11 23:10:00,60.2,58.8,29.96,West,277,8.0,14.0,95,0.00,CLR,,0.15,WeatherDisplay:10.37,2013-02-12 04:10:00,
2013-02-11 23:15:00,60.2,58.7,29.96,West,280,6.0,9.0,95,0.00,CLR,,0.15,WeatherDisplay:10.37,2013-02-12 04:15:00,
2013-02-11 23:20:00,60.1,58.7,29.96,West,275,3.7,4.6,95,0.00,CLR,,0.15,WeatherDisplay:10.37,2013-02-12 04:20:00,
2013-02-11 23:25:00,59.9,58.5,29.96,West,259,5.0,7.0,95,0.00,CLR,,0.15,WeatherDisplay:10.37,2013-02-12 04:25:00,
2013-02-11 23:30:00,59.8,58.4,29.95,WSW,255,3.0,6.0,95,0.00,CLR,,0.15,WeatherDisplay:10.37,2013-02-12 04:30:00,
2013-02-11 23:35:00,59.7,58.6,29.95,West,265,3.0,6.0,96,0.00,CLR,,0.15,WeatherDisplay:10.37,2013-02-12 04:35:00,
2013-02-11 23:40:00,59.6,58.5,29.95,West,267,5.0,8.0,96,0.00,CLR,,0.15,WeatherDisplay:10.37,2013-02-12 04:40:00,
2013-02-11 23:45:00,59.6,58.5,29.96,West,268,3.0,6.0,96,0.00,CLR,,0.15,WeatherDisplay:10.37,2013-02-12 04:45:00,
2013-02-11 23:51:00,59.6,58.5,29.96,West,269,5.0,7.0,96,0.00,CLR,,0.15,WeatherDisplay:10.37,2013-02-12 04:51:00,
2013-02-11 23:56:00,59.7,58.6,29.95,West,275,3.9,4.6,96,0.00,CLR,,0.15,WeatherDisplay:10.37,2013-02-12 04:56:00,